createdAt,value
2022-08-19T00:00:53.239Z,94.67
2022-08-19T00:01:53.788Z,95.07
2022-08-19T00:02:53.291Z,94.96
2022-08-19T00:03:53.228Z,94.96
2022-08-19T00:04:53.364Z,95.37
2022-08-19T00:05:53.210Z,95.07
2022-08-19T00:06:53.200Z,94.96
2022-08-19T00:07:53.227Z,94.56
2022-08-19T00:08:53.196Z,94.67
2022-08-19T00:09:53.173Z,94.46
2022-08-19T00:10:53.174Z,94.56
2022-08-19T00:11:53.155Z,94.46
2022-08-19T00:12:54.188Z,94.76
2022-08-19T00:13:53.149Z,94.56
2022-08-19T00:14:53.159Z,94.67
2022-08-19T00:15:53.154Z,94.60
2022-08-19T00:16:53.131Z,94.36
2022-08-19T00:17:53.148Z,94.06
2022-08-19T00:18:53.110Z,94.36
2022-08-19T00:19:53.106Z,94.46
2022-08-19T00:20:53.087Z,94.51
2022-08-19T00:21:53.095Z,94.91
2022-08-19T00:22:53.231Z,95.41
2022-08-19T00:23:53.079Z,95.01
2022-08-19T00:24:53.066Z,95.51
2022-08-19T00:25:53.056Z,95.72
2022-08-19T00:26:53.048Z,95.81
2022-08-19T00:27:53.063Z,96.12
2022-08-19T00:28:53.034Z,96.12
2022-08-19T00:29:53.043Z,96.12
2022-08-19T00:30:53.011Z,96.22
2022-08-19T00:31:53.013Z,96.12
2022-08-19T00:32:53.106Z,96.36
2022-08-19T00:33:52.998Z,96.67
2022-08-19T00:34:52.982Z,97.07
2022-08-19T00:35:56.128Z,97.02
2022-08-19T00:36:52.969Z,97.17
2022-08-19T00:37:52.980Z,96.77
2022-08-19T00:38:52.949Z,96.87
2022-08-19T00:39:53.014Z,96.77
2022-08-19T00:40:52.945Z,96.77
2022-08-19T00:41:52.922Z,96.77
2022-08-19T00:42:53.094Z,96.77
2022-08-19T00:43:52.918Z,96.87
2022-08-19T00:44:52.905Z,96.77
2022-08-19T00:45:52.899Z,96.67
2022-08-19T00:46:57.944Z,96.06
2022-08-19T00:47:53.911Z,96.52
2022-08-19T00:48:52.875Z,96.52
2022-08-19T00:49:52.856Z,97.13
2022-08-19T00:50:52.852Z,96.26
2022-08-19T00:51:52.850Z,96.97
2022-08-19T00:52:52.987Z,97.03
2022-08-19T00:53:52.833Z,96.92
2022-08-19T00:54:52.967Z,96.22
2022-08-19T00:55:52.815Z,96.32
2022-08-19T00:56:52.814Z,96.52
2022-08-19T00:57:52.826Z,96.12
2022-08-19T00:58:52.794Z,96.12
2022-08-19T01:00:00.365Z,96.52
2022-08-19T01:00:53.772Z,96.42
2022-08-19T01:01:52.843Z,96.52
2022-08-19T01:02:52.926Z,96.42
2022-08-19T01:03:57.893Z,96.42
2022-08-19T01:04:53.755Z,96.62
2022-08-19T01:05:52.737Z,96.42
2022-08-19T01:06:52.739Z,96.42
2022-08-19T01:07:52.748Z,96.52
2022-08-19T01:08:52.720Z,96.52
2022-08-19T01:09:52.713Z,96.42
2022-08-19T01:10:52.698Z,96.01
2022-08-19T01:11:52.698Z,96.12
2022-08-19T01:12:52.842Z,96.12
2022-08-19T01:13:52.672Z,96.01
2022-08-19T01:14:52.672Z,96.12
2022-08-19T01:15:52.671Z,96.12
2022-08-19T01:16:52.663Z,96.22
2022-08-19T01:17:52.676Z,96.01
2022-08-19T01:18:52.644Z,96.22
2022-08-19T01:19:52.630Z,96.42
2022-08-19T01:20:52.621Z,96.12
2022-08-19T01:21:52.619Z,96.42
2022-08-19T01:22:52.715Z,96.12
2022-08-19T01:23:52.600Z,95.81
2022-08-19T01:24:52.597Z,96.12
2022-08-19T01:25:52.593Z,96.36
2022-08-19T01:26:52.576Z,96.97
2022-08-19T01:27:53.499Z,97.22
2022-08-19T01:28:52.569Z,97.72
2022-08-19T01:29:52.554Z,97.52
2022-08-19T01:30:52.547Z,97.62
2022-08-19T01:31:52.545Z,97.47
2022-08-19T01:32:52.683Z,97.58
2022-08-19T01:33:52.527Z,97.07
2022-08-19T01:34:52.526Z,96.67
2022-08-19T01:35:52.510Z,96.67
2022-08-19T01:36:52.507Z,96.47
2022-08-19T01:37:52.519Z,97.07
2022-08-19T01:38:52.485Z,97.42
2022-08-19T01:39:52.508Z,97.47
2022-08-19T01:40:52.467Z,97.82
2022-08-19T01:41:52.463Z,97.78
2022-08-19T01:42:52.668Z,97.88
2022-08-19T01:44:12.381Z,97.47
2022-08-19T01:44:53.440Z,97.58
2022-08-19T01:46:26.827Z,97.78
2022-08-19T01:46:52.418Z,97.78
2022-08-19T01:48:01.493Z,97.58
2022-08-19T01:48:53.404Z,97.47
2022-08-19T01:49:52.397Z,97.47
2022-08-19T01:50:52.384Z,97.47
2022-08-19T01:51:52.382Z,97.17
2022-08-19T01:53:02.362Z,97.17
2022-08-19T01:53:53.364Z,96.77
2022-08-19T01:54:52.353Z,96.92
2022-08-19T01:55:52.356Z,96.87
2022-08-19T01:56:52.345Z,96.77
2022-08-19T01:57:52.363Z,96.83
2022-08-19T01:58:52.321Z,96.92
2022-08-19T01:59:52.322Z,96.92
2022-08-19T02:00:52.309Z,96.52
2022-08-19T02:01:52.410Z,96.52
2022-08-19T02:02:52.497Z,96.62
2022-08-19T02:03:52.301Z,96.32
2022-08-19T02:04:52.276Z,96.52
2022-08-19T02:05:52.282Z,96.52
2022-08-19T02:06:52.263Z,96.01
2022-08-19T02:07:52.284Z,96.01
2022-08-19T02:08:52.257Z,95.92
2022-08-19T02:09:53.244Z,96.01
2022-08-19T02:10:52.237Z,95.97
2022-08-19T02:11:52.244Z,96.52
2022-08-19T02:12:52.384Z,96.42
2022-08-19T02:13:52.216Z,96.52
2022-08-19T02:14:52.202Z,96.83
2022-08-19T02:15:52.217Z,96.72
2022-08-19T02:16:52.185Z,96.83
2022-08-19T02:17:52.209Z,97.23
2022-08-19T02:18:52.173Z,97.03
2022-08-19T02:19:52.168Z,97.03
2022-08-19T02:20:52.160Z,96.72
2022-08-19T02:21:52.151Z,96.62
2022-08-19T02:22:52.243Z,96.52
2022-08-19T02:23:52.135Z,96.83
2022-08-19T02:24:52.127Z,96.52
2022-08-19T02:25:52.143Z,96.52
2022-08-19T02:26:52.108Z,96.52
2022-08-19T02:27:52.133Z,96.92
2022-08-19T02:28:52.094Z,96.72
2022-08-19T02:29:52.092Z,96.92
2022-08-19T02:30:52.083Z,96.22
2022-08-19T02:31:52.072Z,96.42
2022-08-19T02:32:52.065Z,96.83
2022-08-19T02:33:52.084Z,96.52
2022-08-19T02:34:52.050Z,96.92
2022-08-19T02:35:52.031Z,96.83
2022-08-19T02:36:53.032Z,97.13
2022-08-19T02:37:52.023Z,96.42
2022-08-19T02:38:54.190Z,96.32
2022-08-19T02:39:52.039Z,96.48
2022-08-19T02:40:52.009Z,96.52
2022-08-19T02:41:51.996Z,96.48
2022-08-19T02:42:52.088Z,96.48
2022-08-19T02:44:28.895Z,95.97
2022-08-19T02:44:52.968Z,96.37
2022-08-19T02:45:51.967Z,96.17
2022-08-19T02:46:52.732Z,96.17
2022-08-19T02:47:51.962Z,96.12
2022-08-19T02:48:51.970Z,95.97
2022-08-19T02:49:51.940Z,96.28
2022-08-19T02:50:53.659Z,95.97
2022-08-19T02:51:51.922Z,96.32
2022-08-19T02:52:52.141Z,95.97
2022-08-19T02:53:51.932Z,95.97
2022-08-19T02:54:51.912Z,96.08
2022-08-19T02:55:51.914Z,96.08
2022-08-19T02:56:51.874Z,95.87
2022-08-19T02:57:52.904Z,95.77
2022-08-19T02:58:51.867Z,95.77
2022-08-19T02:59:51.866Z,95.77
2022-08-19T03:00:51.946Z,95.77
2022-08-19T03:01:51.846Z,95.27
2022-08-19T03:02:51.876Z,95.27
2022-08-19T03:03:51.863Z,95.27
2022-08-19T03:04:51.835Z,95.17
2022-08-19T03:05:56.587Z,95.47
2022-08-19T03:06:52.805Z,95.07
2022-08-19T03:07:51.805Z,95.47
2022-08-19T03:08:51.820Z,95.47
2022-08-19T03:09:51.788Z,95.07
2022-08-19T03:10:51.772Z,95.17
2022-08-19T03:11:52.816Z,96.01
2022-08-19T03:12:51.894Z,96.72
2022-08-19T03:13:51.792Z,97.13
2022-08-19T03:14:51.743Z,96.83
2022-08-19T03:15:51.733Z,96.52
2022-08-19T03:16:51.737Z,97.07
2022-08-19T03:17:51.899Z,97.58
2022-08-19T03:18:51.708Z,97.07
2022-08-19T03:19:51.701Z,97.58
2022-08-19T03:20:51.696Z,97.58
2022-08-19T03:21:51.688Z,97.88
2022-08-19T03:22:51.876Z,97.67
2022-08-19T03:23:51.665Z,97.47
2022-08-19T03:24:51.667Z,97.33
2022-08-19T03:26:02.705Z,96.92
2022-08-19T03:26:52.647Z,97.03
2022-08-19T03:27:51.638Z,96.72
2022-08-19T03:28:57.756Z,96.62
2022-08-19T03:29:52.622Z,96.83
2022-08-19T03:30:51.619Z,96.72
2022-08-19T03:31:52.774Z,96.52
2022-08-19T03:32:53.515Z,96.92
2022-08-19T03:33:52.623Z,96.92
2022-08-19T03:34:51.610Z,96.42
2022-08-19T03:35:51.581Z,96.32
2022-08-19T03:36:51.576Z,97.03
2022-08-19T03:37:51.571Z,96.92
2022-08-19T03:38:51.594Z,96.72
2022-08-19T03:39:52.574Z,96.92
2022-08-19T03:40:51.552Z,96.28
2022-08-19T03:42:32.423Z,96.37
2022-08-19T03:42:52.562Z,96.37
2022-08-19T03:43:51.541Z,96.37
2022-08-19T03:44:51.550Z,96.58
2022-08-19T03:45:51.509Z,96.28
2022-08-19T03:46:51.505Z,96.08
2022-08-19T03:47:51.523Z,96.08
2022-08-19T03:48:51.486Z,96.17
2022-08-19T03:49:51.481Z,95.93
2022-08-19T03:50:51.481Z,96.13
2022-08-19T03:51:51.466Z,95.83
2022-08-19T03:52:51.681Z,95.77
2022-08-19T03:53:51.452Z,95.97
2022-08-19T03:54:51.439Z,95.62
2022-08-19T03:55:51.447Z,95.73
2022-08-19T03:56:51.421Z,95.22
2022-08-19T03:57:51.476Z,95.32
2022-08-19T03:58:51.420Z,95.32
2022-08-19T03:59:51.407Z,95.53
2022-08-19T04:00:51.422Z,95.32
2022-08-19T04:01:51.392Z,95.07
2022-08-19T04:02:58.186Z,94.92
2022-08-19T04:03:52.393Z,94.87
2022-08-19T04:04:51.366Z,95.07
2022-08-19T04:05:51.364Z,94.82
2022-08-19T04:06:51.351Z,95.07
2022-08-19T04:07:51.344Z,95.18
2022-08-19T04:08:51.362Z,94.47
2022-08-19T04:09:51.328Z,94.78
2022-08-19T04:10:51.322Z,93.97
2022-08-19T04:11:51.310Z,94.87
2022-08-19T04:12:51.423Z,94.78
2022-08-19T04:13:51.319Z,94.87
2022-08-19T04:14:51.288Z,94.78
2022-08-19T04:15:51.292Z,94.87
2022-08-19T04:16:51.269Z,95.18
2022-08-19T04:17:51.265Z,95.73
2022-08-19T04:18:51.287Z,96.13
2022-08-19T04:19:51.246Z,96.03
2022-08-19T04:20:51.245Z,95.83
2022-08-19T04:21:51.235Z,96.23
2022-08-19T04:22:51.241Z,96.08
2022-08-19T04:23:51.255Z,96.43
2022-08-19T04:24:51.206Z,96.73
2022-08-19T04:25:51.203Z,96.33
2022-08-19T04:26:51.203Z,96.23
2022-08-19T04:27:51.214Z,96.13
2022-08-19T04:28:51.207Z,95.78
2022-08-19T04:29:51.174Z,96.23
2022-08-19T04:30:51.184Z,95.93
2022-08-19T04:31:51.155Z,95.78
2022-08-19T04:32:51.153Z,95.58
2022-08-19T04:33:51.165Z,95.07
2022-08-19T04:35:02.129Z,95.28
2022-08-19T04:35:52.132Z,95.28
2022-08-19T04:36:51.118Z,95.28
2022-08-19T04:37:51.129Z,94.98
2022-08-19T04:38:51.130Z,95.07
2022-08-19T04:39:51.130Z,95.07
2022-08-19T04:40:51.088Z,95.13
2022-08-19T04:41:51.075Z,94.53
2022-08-19T04:42:51.064Z,94.33
2022-08-19T04:43:51.085Z,94.73
2022-08-19T04:44:51.047Z,94.73
2022-08-19T04:45:51.056Z,94.33
2022-08-19T04:46:52.236Z,94.53
2022-08-19T04:47:58.634Z,94.43
2022-08-19T04:48:52.041Z,94.23
2022-08-19T04:49:51.008Z,93.73
2022-08-19T04:50:51.001Z,94.18
2022-08-19T04:51:50.994Z,94.02
2022-08-19T04:52:50.985Z,94.02
2022-08-19T04:53:51.008Z,93.58
2022-08-19T04:54:50.971Z,94.18
2022-08-19T04:55:50.978Z,93.88
2022-08-19T04:56:50.949Z,94.43
2022-08-19T04:57:50.968Z,94.43
2022-08-19T04:58:50.973Z,94.83
2022-08-19T04:59:50.934Z,94.83
2022-08-19T05:00:50.980Z,94.93
2022-08-19T05:01:50.911Z,94.93
2022-08-19T05:02:50.910Z,94.53
2022-08-19T05:03:50.929Z,94.89
2022-08-19T05:04:50.889Z,94.73
2022-08-19T05:05:50.887Z,94.93
2022-08-19T05:06:50.875Z,94.53
2022-08-19T05:07:50.900Z,94.53
2022-08-19T05:08:50.922Z,94.53
2022-08-19T05:09:58.025Z,94.93
2022-08-19T05:10:51.841Z,95.07
2022-08-19T05:11:50.834Z,95.43
2022-08-19T05:12:50.830Z,95.03
2022-08-19T05:13:50.847Z,95.73
2022-08-19T05:14:50.819Z,96.24
2022-08-19T05:15:50.808Z,95.84
2022-08-19T05:16:58.898Z,96.04
2022-08-19T05:17:51.793Z,96.04
2022-08-19T05:18:50.817Z,95.88
2022-08-19T05:19:50.773Z,95.88
2022-08-19T05:20:50.770Z,95.64
2022-08-19T05:21:50.765Z,95.64
2022-08-19T05:22:50.870Z,95.23
2022-08-19T05:23:50.776Z,95.23
2022-08-19T05:25:11.224Z,95.07
2022-08-19T05:25:52.824Z,94.83
2022-08-19T05:26:50.716Z,94.73
2022-08-19T05:27:50.736Z,94.89
2022-08-19T05:28:54.529Z,94.18
2022-08-19T05:29:51.698Z,94.28
2022-08-19T05:30:50.692Z,94.38
2022-08-19T05:31:50.676Z,94.34
2022-08-19T05:32:50.667Z,94.48
2022-08-19T05:33:50.689Z,94.18
2022-08-19T05:34:50.653Z,93.38
2022-08-19T05:35:50.653Z,94.04
2022-08-19T05:36:50.642Z,93.58
2022-08-19T05:37:50.630Z,93.48
2022-08-19T05:38:51.060Z,93.13
2022-08-19T05:39:51.646Z,93.03
2022-08-19T05:40:51.618Z,93.13
2022-08-19T05:41:50.603Z,92.93
2022-08-19T05:42:50.617Z,92.69
2022-08-19T05:43:50.635Z,92.93
2022-08-19T05:44:50.589Z,92.69
2022-08-19T05:45:50.578Z,92.38
2022-08-19T05:46:51.562Z,92.08
2022-08-19T05:47:50.559Z,92.83
2022-08-19T05:48:50.594Z,92.53
2022-08-19T05:49:50.541Z,92.58
2022-08-19T05:50:50.579Z,92.93
2022-08-19T05:51:50.532Z,92.53
2022-08-19T05:52:50.817Z,92.83
2022-08-19T05:53:50.535Z,92.53
2022-08-19T05:54:51.336Z,92.63
2022-08-19T05:55:50.496Z,91.93
2022-08-19T05:56:50.481Z,92.53
2022-08-19T05:57:50.483Z,92.58
2022-08-19T05:58:50.516Z,92.13
2022-08-19T05:59:52.697Z,91.99
2022-08-19T06:00:50.466Z,91.38
2022-08-19T06:01:50.447Z,90.53
2022-08-19T06:02:50.532Z,90.68
2022-08-19T06:03:50.458Z,90.58
2022-08-19T06:04:50.424Z,90.37
2022-08-19T06:05:51.897Z,90.37
2022-08-19T06:06:50.410Z,87.77
2022-08-19T06:07:50.518Z,87.26
2022-08-19T06:08:50.420Z,87.87
2022-08-19T06:09:59.121Z,87.32
2022-08-19T06:10:51.378Z,87.22
2022-08-19T06:11:52.953Z,87.02
2022-08-19T06:12:52.366Z,86.52
2022-08-19T06:13:50.385Z,86.02
2022-08-19T06:15:01.188Z,86.52
2022-08-19T06:15:51.366Z,85.72
2022-08-19T06:16:50.333Z,86.02
2022-08-19T06:17:50.433Z,84.97
2022-08-19T06:18:50.369Z,84.81
2022-08-19T06:19:50.324Z,84.81
2022-08-19T06:20:55.973Z,84.57
2022-08-19T06:21:52.303Z,85.08
2022-08-19T06:22:50.298Z,83.31
2022-08-19T06:23:50.318Z,83.51
2022-08-19T06:24:50.288Z,83.61
2022-08-19T06:25:50.280Z,83.51
2022-08-19T06:26:50.314Z,83.71
2022-08-19T06:28:14.064Z,83.61
2022-08-19T06:28:52.285Z,84.67
2022-08-19T06:29:50.242Z,82.81
2022-08-19T06:30:50.242Z,83.31
2022-08-19T06:31:50.238Z,83.27
2022-08-19T06:32:50.217Z,83.57
2022-08-19T06:33:50.307Z,83.43
2022-08-19T06:34:50.206Z,83.27
2022-08-19T06:35:50.209Z,82.67
2022-08-19T06:36:50.190Z,82.82
2022-08-19T06:37:50.181Z,82.67
2022-08-19T06:38:50.186Z,82.63
2022-08-19T06:39:50.236Z,81.93
2022-08-19T06:40:50.177Z,82.53
2022-08-19T06:41:52.524Z,82.69
2022-08-19T06:42:54.732Z,82.03
2022-08-19T06:43:50.133Z,82.12
2022-08-19T06:44:50.149Z,82.63
2022-08-19T06:45:50.115Z,83.33
2022-08-19T06:46:54.641Z,82.23
2022-08-19T06:47:51.102Z,82.69
2022-08-19T06:48:50.111Z,82.73
2022-08-19T06:49:50.108Z,81.68
2022-08-19T06:50:50.096Z,81.79
2022-08-19T06:51:50.068Z,81.79
2022-08-19T06:52:50.113Z,81.29
2022-08-19T06:54:56.597Z,80.79
2022-08-19T06:55:51.063Z,79.38
2022-08-19T06:56:50.049Z,80.08
2022-08-19T06:57:50.040Z,79.88
2022-08-19T06:58:50.054Z,79.78
2022-08-19T06:59:50.013Z,80.48
2022-08-19T07:00:50.042Z,81.09
2022-08-19T07:01:49.994Z,79.18
2022-08-19T07:02:57.249Z,80.02
2022-08-19T07:03:51.002Z,79.98
2022-08-19T07:04:52.760Z,79.98
2022-08-19T07:05:49.971Z,79.82
2022-08-19T07:06:55.193Z,80.48
2022-08-19T07:07:51.173Z,80.22
2022-08-19T07:08:49.962Z,80.18
2022-08-19T07:09:51.816Z,80.32
2022-08-19T07:10:50.921Z,80.12
2022-08-19T07:11:49.916Z,80.62
2022-08-19T07:12:49.972Z,80.28
2022-08-19T07:13:49.904Z,79.98
2022-08-19T07:14:49.918Z,79.98
2022-08-19T07:15:49.897Z,79.88
2022-08-19T07:16:49.881Z,79.28
2022-08-19T07:17:52.615Z,79.28
2022-08-19T07:18:49.846Z,78.98
2022-08-19T07:19:50.915Z,79.38
2022-08-19T07:20:49.843Z,79.14
2022-08-19T07:21:49.843Z,79.28
2022-08-19T07:22:49.825Z,78.78
2022-08-19T07:23:49.820Z,80.32
2022-08-19T07:24:51.297Z,79.82
2022-08-19T07:25:52.914Z,80.42
2022-08-19T07:26:51.591Z,80.28
2022-08-19T07:27:54.312Z,80.98
2022-08-19T07:28:52.830Z,80.08
2022-08-19T07:29:55.858Z,79.58
2022-08-19T07:30:50.762Z,78.94
2022-08-19T07:31:49.757Z,79.04
2022-08-19T07:32:49.742Z,79.04
2022-08-19T07:33:49.782Z,79.24
2022-08-19T07:34:49.760Z,79.04
2022-08-19T07:35:49.727Z,79.08
2022-08-19T07:36:49.717Z,78.58
2022-08-19T07:37:49.778Z,78.18
2022-08-19T07:38:49.713Z,78.78
2022-08-19T07:39:49.761Z,79.74
2022-08-19T07:40:49.683Z,77.94
2022-08-19T07:41:49.675Z,77.64
2022-08-19T07:42:49.671Z,76.54
2022-08-19T07:43:49.662Z,76.98
2022-08-19T07:44:50.723Z,77.78
2022-08-19T07:45:49.691Z,77.08
2022-08-19T07:47:51.316Z,77.58
2022-08-19T07:47:58.424Z,77.48
2022-08-19T07:48:50.625Z,77.17
2022-08-19T07:49:49.640Z,77.28
2022-08-19T07:50:49.617Z,76.78
2022-08-19T07:51:49.592Z,76.84
2022-08-19T07:52:49.593Z,76.54
2022-08-19T07:53:49.615Z,76.60
2022-08-19T07:54:49.579Z,75.30
2022-08-19T07:55:49.572Z,75.93
2022-08-19T07:56:49.573Z,75.84
2022-08-19T07:57:49.562Z,76.64
2022-08-19T07:58:49.636Z,76.14
2022-08-19T07:59:49.539Z,75.84
2022-08-19T08:00:49.534Z,76.43
2022-08-19T08:01:49.548Z,75.84
2022-08-19T08:02:49.625Z,76.30
2022-08-19T08:03:49.533Z,76.43
2022-08-19T08:04:49.501Z,76.50
2022-08-19T08:05:49.496Z,75.70
2022-08-19T08:06:49.493Z,75.40
2022-08-19T08:07:49.478Z,74.87
2022-08-19T08:08:49.496Z,75.70
2022-08-19T08:09:50.069Z,75.40
2022-08-19T08:10:53.101Z,76.40
2022-08-19T08:11:50.444Z,75.00
2022-08-19T08:13:05.859Z,75.20
2022-08-19T08:14:01.247Z,74.70
2022-08-19T08:14:50.428Z,75.70
2022-08-19T08:15:50.425Z,75.90
2022-08-19T08:16:49.409Z,74.80
2022-08-19T08:17:51.572Z,75.20
2022-08-19T08:18:50.547Z,75.40
2022-08-19T08:19:49.421Z,74.80
2022-08-19T08:20:49.378Z,75.04
2022-08-19T08:21:49.378Z,74.80
2022-08-19T08:22:49.388Z,74.60
2022-08-19T08:23:51.082Z,75.80
2022-08-19T08:24:49.365Z,75.63
2022-08-19T08:25:49.463Z,75.63
2022-08-19T08:26:52.220Z,75.60
2022-08-19T08:27:50.395Z,75.80
2022-08-19T08:28:49.456Z,75.20
2022-08-19T08:29:49.322Z,75.10
2022-08-19T08:30:49.360Z,75.30
2022-08-19T08:31:49.292Z,75.06
2022-08-19T08:32:50.285Z,74.76
2022-08-19T08:33:49.280Z,74.96
2022-08-19T08:34:50.071Z,74.93
2022-08-19T08:35:49.258Z,74.87
2022-08-19T08:36:49.246Z,75.37
2022-08-19T08:37:51.113Z,75.06
2022-08-19T08:38:49.291Z,75.37
2022-08-19T08:39:49.276Z,75.50
2022-08-19T08:40:49.212Z,75.50
2022-08-19T08:41:49.204Z,75.60
2022-08-19T08:42:49.230Z,75.60
2022-08-19T08:43:49.187Z,76.40
2022-08-19T08:44:49.236Z,75.80
2022-08-19T08:45:53.571Z,75.37
2022-08-19T08:46:49.166Z,75.46
2022-08-19T08:47:49.182Z,75.16
2022-08-19T08:48:52.585Z,75.76
2022-08-19T08:49:51.285Z,75.56
2022-08-19T08:50:49.140Z,75.76
2022-08-19T08:51:59.498Z,75.87
2022-08-19T08:52:50.146Z,75.16
2022-08-19T08:53:49.131Z,75.16
2022-08-19T08:54:55.439Z,75.67
2022-08-19T08:55:50.102Z,75.06
2022-08-19T08:56:49.136Z,75.52
2022-08-19T08:57:49.090Z,74.73
2022-08-19T08:58:53.903Z,74.73
2022-08-19T08:59:51.106Z,74.83
2022-08-19T09:00:49.158Z,74.93
2022-08-19T09:01:49.125Z,74.83
2022-08-19T09:02:50.983Z,75.02
2022-08-19T09:03:49.159Z,75.43
2022-08-19T09:04:49.480Z,75.13
2022-08-19T09:05:49.040Z,75.23
2022-08-19T09:06:49.042Z,75.23
2022-08-19T09:07:49.138Z,75.02
2022-08-19T09:08:49.018Z,75.13
2022-08-19T09:09:49.049Z,75.09
2022-08-19T09:10:49.019Z,74.79
2022-08-19T09:11:49.996Z,74.79
2022-08-19T09:12:48.994Z,74.39
2022-08-19T09:13:49.000Z,74.93
2022-08-19T09:14:51.044Z,75.33
2022-08-19T09:15:50.001Z,74.99
2022-08-19T09:16:48.956Z,74.76
2022-08-19T09:17:51.681Z,74.26
2022-08-19T09:18:48.945Z,73.36
2022-08-19T09:19:48.977Z,73.22
2022-08-19T09:20:48.903Z,73.52
2022-08-19T09:21:48.920Z,74.55
2022-08-19T09:22:48.893Z,73.12
2022-08-19T09:23:51.034Z,72.82
2022-08-19T09:24:48.905Z,72.82
2022-08-19T09:25:48.865Z,73.32
2022-08-19T09:26:52.643Z,73.12
2022-08-19T09:27:48.942Z,72.62
2022-08-19T09:28:49.020Z,72.49
2022-08-19T09:29:48.828Z,71.95
2022-08-19T09:30:48.860Z,72.19
2022-08-19T09:31:48.813Z,73.15
2022-08-19T09:32:52.933Z,71.32
2022-08-19T09:33:48.803Z,71.32
2022-08-19T09:34:51.295Z,72.02
2022-08-19T09:35:53.581Z,70.89
2022-08-19T09:36:48.779Z,70.75
2022-08-19T09:37:48.772Z,70.69
2022-08-19T09:38:48.778Z,70.16
2022-08-19T09:39:48.807Z,69.66
2022-08-19T09:40:48.787Z,70.19
2022-08-19T09:41:49.172Z,70.09
2022-08-19T09:42:50.296Z,69.29
2022-08-19T09:43:48.729Z,70.32
2022-08-19T09:44:48.740Z,70.36
2022-08-19T09:45:48.705Z,68.46
2022-08-19T09:46:48.700Z,68.73
2022-08-19T09:47:48.695Z,67.73
2022-08-19T09:48:48.687Z,68.37
2022-08-19T09:49:48.712Z,68.56
2022-08-19T09:50:51.686Z,69.16
2022-08-19T09:51:51.321Z,68.96
2022-08-19T09:52:54.177Z,69.76
2022-08-19T09:53:49.645Z,69.09
2022-08-19T09:54:52.032Z,66.61
2022-08-19T09:55:48.626Z,67.27
2022-08-19T09:56:48.617Z,68.26
2022-08-19T09:57:48.621Z,67.66
2022-08-19T09:58:48.612Z,68.43
2022-08-19T09:59:48.630Z,65.94
2022-08-19T10:00:51.687Z,66.74
2022-08-19T10:01:48.626Z,66.74
2022-08-19T10:02:48.583Z,66.47
2022-08-19T10:03:48.616Z,66.27
2022-08-19T10:04:48.563Z,66.87
2022-08-19T10:05:48.890Z,66.17
2022-08-19T10:06:48.545Z,66.47
2022-08-19T10:07:49.576Z,65.67
2022-08-19T10:08:50.272Z,65.14
2022-08-19T10:09:48.520Z,65.64
2022-08-19T10:10:48.543Z,64.91
2022-08-19T10:11:54.490Z,65.34
2022-08-19T10:12:50.516Z,64.75
2022-08-19T10:13:48.492Z,65.74
2022-08-19T10:14:48.485Z,65.94
2022-08-19T10:15:49.367Z,66.01
2022-08-19T10:16:48.468Z,66.08
2022-08-19T10:17:48.468Z,64.98
2022-08-19T10:18:49.681Z,65.38
2022-08-19T10:19:53.835Z,64.81
2022-08-19T10:20:51.559Z,64.81
2022-08-19T10:21:48.437Z,65.81
2022-08-19T10:22:48.418Z,65.41
2022-08-19T10:23:48.412Z,65.78
2022-08-19T10:24:48.417Z,65.45
2022-08-19T10:25:48.429Z,64.45
2022-08-19T10:26:48.391Z,64.06
2022-08-19T10:27:51.465Z,64.65
2022-08-19T10:28:49.374Z,62.86
2022-08-19T10:29:48.373Z,62.69
2022-08-19T10:30:48.437Z,64.25
2022-08-19T10:32:01.417Z,62.96
2022-08-19T10:32:49.346Z,62.86
2022-08-19T10:33:54.197Z,64.32
2022-08-19T10:34:49.332Z,62.80
2022-08-19T10:35:57.129Z,62.70
2022-08-19T10:36:52.286Z,63.70
2022-08-19T10:37:56.930Z,62.93
2022-08-19T10:38:52.392Z,62.96
2022-08-19T10:39:49.325Z,63.23
2022-08-19T10:40:48.327Z,64.36
2022-08-19T10:41:48.278Z,64.36
2022-08-19T10:42:48.283Z,64.55
2022-08-19T10:43:48.267Z,64.98
2022-08-19T10:44:48.276Z,65.01
2022-08-19T10:45:52.521Z,65.61
2022-08-19T10:46:48.985Z,64.78
2022-08-19T10:47:49.249Z,64.88
2022-08-19T10:48:48.232Z,64.18
2022-08-19T10:49:48.218Z,63.69
2022-08-19T10:50:48.245Z,63.35
2022-08-19T10:51:48.793Z,62.75
2022-08-19T10:52:50.012Z,62.75
2022-08-19T10:53:48.190Z,62.92
2022-08-19T10:54:48.180Z,62.42
2022-08-19T10:55:48.198Z,62.69
2022-08-19T10:56:48.157Z,62.19
2022-08-19T10:58:04.589Z,61.57
2022-08-19T10:58:50.148Z,60.64
2022-08-19T10:59:48.155Z,61.74
2022-08-19T11:00:48.191Z,61.74
2022-08-19T11:01:48.130Z,61.44
2022-08-19T11:02:48.121Z,61.94
2022-08-19T11:03:48.107Z,62.23
2022-08-19T11:04:48.104Z,62.43
2022-08-19T11:05:48.127Z,62.26
2022-08-19T11:06:48.088Z,62.46
2022-08-19T11:07:48.089Z,61.87
2022-08-19T11:08:48.073Z,62.66
2022-08-19T11:09:48.060Z,61.87
2022-08-19T11:10:50.419Z,61.74
2022-08-19T11:11:48.064Z,61.80
2022-08-19T11:12:48.065Z,61.04
2022-08-19T11:13:48.039Z,61.47
2022-08-19T11:14:48.031Z,61.87
2022-08-19T11:15:48.049Z,62.49
2022-08-19T11:16:48.019Z,61.77
2022-08-19T11:17:48.040Z,61.34
2022-08-19T11:18:47.994Z,61.37
2022-08-19T11:19:47.995Z,61.80
2022-08-19T11:20:48.039Z,60.77
2022-08-19T11:21:47.979Z,61.17
2022-08-19T11:22:47.960Z,60.87
2022-08-19T11:23:47.956Z,60.40
2022-08-19T11:24:47.947Z,60.77
2022-08-19T11:25:47.969Z,61.37
2022-08-19T11:26:47.928Z,60.05
2022-08-19T11:27:47.989Z,60.74
2022-08-19T11:28:47.915Z,60.47
2022-08-19T11:29:47.908Z,59.95
2022-08-19T11:30:47.921Z,60.74
2022-08-19T11:31:47.888Z,61.34
2022-08-19T11:32:49.518Z,61.54
2022-08-19T11:33:48.870Z,61.64
2022-08-19T11:34:47.871Z,61.54
2022-08-19T11:35:47.886Z,62.56
2022-08-19T11:36:47.849Z,62.46
2022-08-19T11:37:47.992Z,62.13
2022-08-19T11:38:47.837Z,62.13
2022-08-19T11:39:53.329Z,61.21
2022-08-19T11:40:48.857Z,61.41
2022-08-19T11:41:47.817Z,60.88
2022-08-19T11:42:47.807Z,60.06
2022-08-19T11:43:47.796Z,61.35
2022-08-19T11:44:47.790Z,59.44
2022-08-19T11:45:47.812Z,60.03
2022-08-19T11:46:47.774Z,60.43
2022-08-19T11:47:47.809Z,59.96
2022-08-19T11:48:47.760Z,61.88
2022-08-19T11:49:47.757Z,61.31
2022-08-19T11:50:47.762Z,61.94
2022-08-19T11:51:47.740Z,63.03
2022-08-19T11:52:47.732Z,62.07
2022-08-19T11:53:47.724Z,61.87
2022-08-19T11:54:47.718Z,62.07
2022-08-19T11:55:47.744Z,62.10
2022-08-19T11:56:47.694Z,61.27
2022-08-19T11:57:47.748Z,61.57
2022-08-19T11:58:47.695Z,61.17
2022-08-19T11:59:47.675Z,61.34
2022-08-19T12:00:47.714Z,60.55
2022-08-19T12:01:47.643Z,60.64
2022-08-19T12:02:49.598Z,60.44
2022-08-19T12:03:47.708Z,61.14
2022-08-19T12:04:47.633Z,60.91
2022-08-19T12:05:47.657Z,60.39
2022-08-19T12:06:47.621Z,60.26
2022-08-19T12:07:47.655Z,59.74
2022-08-19T12:08:47.610Z,59.14
2022-08-19T12:09:48.814Z,60.75
2022-08-19T12:10:47.637Z,60.13
2022-08-19T12:11:47.609Z,59.86
2022-08-19T12:12:54.643Z,59.30
2022-08-19T12:13:48.582Z,59.99
2022-08-19T12:14:47.630Z,60.28
2022-08-19T12:15:47.579Z,60.69
2022-08-19T12:16:49.061Z,59.56
2022-08-19T12:17:47.537Z,57.95
2022-08-19T12:18:47.530Z,57.18
2022-08-19T12:19:47.515Z,56.98
2022-08-19T12:20:47.518Z,56.29
2022-08-19T12:21:47.529Z,56.66
2022-08-19T12:22:47.499Z,56.88
2022-08-19T12:23:47.508Z,57.45
2022-08-19T12:24:47.497Z,57.45
2022-08-19T12:25:47.611Z,57.35
2022-08-19T12:26:52.877Z,56.83
2022-08-19T12:27:56.749Z,56.13
2022-08-19T12:28:49.442Z,56.90
2022-08-19T12:29:47.440Z,55.91
2022-08-19T12:30:47.441Z,55.21
2022-08-19T12:31:47.450Z,55.83
2022-08-19T12:32:47.428Z,56.06
2022-08-19T12:33:47.419Z,56.46
2022-08-19T12:34:47.405Z,56.29
2022-08-19T12:35:47.398Z,57.31
2022-08-19T12:36:47.413Z,57.51
2022-08-19T12:37:55.811Z,57.21
2022-08-19T12:38:48.383Z,57.31
2022-08-19T12:39:47.407Z,57.41
2022-08-19T12:40:47.360Z,56.38
2022-08-19T12:41:53.996Z,55.17
2022-08-19T12:42:48.346Z,54.77
2022-08-19T12:43:47.348Z,54.47
2022-08-19T12:44:47.328Z,53.66
2022-08-19T12:45:47.319Z,54.02
2022-08-19T12:46:47.344Z,54.25
2022-08-19T12:47:49.613Z,54.77
2022-08-19T12:48:47.296Z,55.34
2022-08-19T12:49:54.413Z,56.01
2022-08-19T12:50:48.287Z,54.49
2022-08-19T12:51:47.299Z,54.62
2022-08-19T12:52:47.266Z,55.21
2022-08-19T12:53:47.264Z,55.21